createdAt,value
2019-05-23T00:01:56.134Z,12.80
2019-05-23T00:06:11.563Z,12.70
2019-05-23T00:10:30.429Z,12.60
2019-05-23T00:14:47.307Z,12.50
2019-05-23T00:19:01.457Z,12.30
2019-05-23T00:23:15.414Z,12.20
2019-05-23T00:27:30.088Z,12.20
2019-05-23T00:32:01.641Z,12.30
2019-05-23T00:36:15.898Z,12.30
2019-05-23T00:40:28.740Z,12.00
2019-05-23T00:44:41.317Z,12.10
2019-05-23T00:48:57.067Z,12.10
2019-05-23T00:53:09.288Z,12.00
2019-05-23T00:57:21.795Z,11.80
2019-05-23T01:01:34.316Z,11.60
2019-05-23T01:05:46.435Z,11.10
2019-05-23T01:09:59.916Z,10.90
2019-05-23T01:14:11.776Z,10.90
2019-05-23T01:18:25.283Z,10.80
2019-05-23T01:22:37.992Z,10.70
2019-05-23T01:26:49.729Z,10.90
2019-05-23T01:31:05.698Z,11.00
2019-05-23T01:35:20.471Z,11.00
2019-05-23T01:39:33.296Z,11.00
2019-05-23T01:43:46.459Z,10.80
2019-05-23T01:47:59.262Z,10.90
2019-05-23T01:52:12.166Z,10.90
2019-05-23T01:56:24.852Z,10.90
2019-05-23T02:00:38.442Z,10.90
2019-05-23T02:04:51.064Z,11.00
2019-05-23T02:09:04.768Z,10.90
2019-05-23T02:13:16.432Z,10.80
2019-05-23T02:17:28.956Z,10.60
2019-05-23T02:21:41.407Z,10.50
2019-05-23T02:25:53.861Z,10.10
2019-05-23T02:30:07.865Z,9.80
2019-05-23T02:34:20.323Z,9.70
2019-05-23T02:38:48.441Z,9.70
2019-05-23T02:43:02.585Z,9.60
2019-05-23T02:47:30.196Z,9.70
2019-05-23T02:51:43.796Z,9.80
2019-05-23T02:56:00.101Z,9.90
2019-05-23T03:00:53.757Z,10.00
2019-05-23T03:04:59.106Z,10.10
2019-05-23T03:09:13.266Z,10.10
2019-05-23T03:13:28.531Z,9.90
2019-05-23T03:17:43.279Z,9.90
2019-05-23T03:21:56.764Z,9.80
2019-05-23T03:26:45.453Z,9.80
2019-05-23T03:31:25.552Z,9.90
2019-05-23T03:35:29.533Z,9.80
2019-05-23T03:39:41.749Z,9.90
2019-05-23T03:43:54.074Z,10.00
2019-05-23T03:48:07.797Z,10.10
2019-05-23T03:52:22.038Z,10.10
2019-05-23T03:56:35.438Z,9.90
2019-05-23T04:00:56.188Z,9.90
2019-05-23T04:05:09.203Z,9.80
2019-05-23T04:09:21.066Z,9.80
2019-05-23T04:13:32.865Z,9.70
2019-05-23T04:17:44.968Z,9.80
2019-05-23T04:21:57.292Z,9.50
2019-05-23T04:26:10.326Z,9.50
2019-05-23T04:30:23.088Z,9.50
2019-05-23T04:34:35.143Z,9.60
2019-05-23T04:38:47.586Z,9.70
2019-05-23T04:42:59.308Z,9.60
2019-05-23T04:47:12.009Z,9.60
2019-05-23T04:51:26.505Z,9.60
2019-05-23T04:55:39.706Z,9.60
2019-05-23T04:59:52.075Z,9.60
2019-05-23T05:04:05.784Z,9.70
2019-05-23T05:08:17.558Z,9.80
2019-05-23T05:12:29.344Z,9.80
2019-05-23T05:16:42.170Z,9.80
2019-05-23T05:20:53.959Z,9.90
2019-05-23T05:25:07.711Z,10.00
2019-05-23T05:29:19.792Z,10.00
2019-05-23T05:33:31.447Z,10.10
2019-05-23T05:37:43.327Z,10.20
2019-05-23T05:41:55.337Z,10.40
2019-05-23T05:46:07.205Z,10.40
2019-05-23T05:50:19.894Z,10.40
2019-05-23T05:54:31.888Z,10.50
2019-05-23T05:58:43.682Z,10.60
2019-05-23T06:03:04.303Z,10.80
2019-05-23T06:07:26.787Z,11.00
2019-05-23T06:11:39.445Z,11.10
2019-05-23T06:15:53.017Z,11.10
2019-05-23T06:20:05.305Z,11.20
2019-05-23T06:24:18.147Z,11.30
2019-05-23T06:28:31.732Z,11.30
2019-05-23T06:32:43.746Z,11.40
2019-05-23T06:36:56.521Z,11.60
2019-05-23T06:41:08.696Z,11.70
2019-05-23T06:45:22.015Z,11.80
2019-05-23T06:49:34.015Z,11.90
2019-05-23T06:53:46.280Z,12.10
2019-05-23T06:57:58.293Z,12.30
2019-05-23T07:02:10.267Z,12.40
2019-05-23T07:06:24.957Z,12.60
2019-05-23T07:10:37.469Z,12.90
2019-05-23T07:14:49.376Z,13.10
2019-05-23T07:19:01.188Z,13.20
2019-05-23T07:23:14.374Z,13.40
2019-05-23T07:27:27.549Z,13.60
2019-05-23T07:31:39.349Z,13.80
2019-05-23T07:35:51.623Z,14.00
2019-05-23T07:40:04.611Z,14.00
2019-05-23T07:44:16.902Z,14.10
2019-05-23T07:48:29.452Z,14.30
2019-05-23T07:52:41.223Z,14.40
2019-05-23T07:56:54.247Z,14.50
2019-05-23T08:01:07.881Z,14.60
2019-05-23T08:05:20.699Z,14.70
2019-05-23T08:09:32.855Z,14.90
2019-05-23T08:13:44.720Z,15.00
2019-05-23T08:17:56.824Z,15.20
2019-05-23T08:22:08.741Z,15.40
2019-05-23T08:26:21.784Z,15.60
2019-05-23T08:30:34.330Z,15.70
2019-05-23T08:34:46.300Z,15.70
2019-05-23T08:38:59.493Z,15.90
2019-05-23T08:43:11.323Z,16.00
2019-05-23T08:47:24.523Z,16.10
2019-05-23T08:51:36.467Z,16.30
2019-05-23T08:55:50.098Z,16.40
2019-05-23T09:00:02.327Z,16.80
2019-05-23T09:04:15.237Z,17.10
2019-05-23T09:08:29.827Z,17.30
2019-05-23T09:12:41.852Z,17.70
2019-05-23T09:16:53.892Z,18.10
2019-05-23T09:21:06.164Z,18.70
2019-05-23T09:25:18.774Z,19.10
2019-05-23T09:29:30.935Z,19.50
2019-05-23T09:33:42.769Z,19.70
2019-05-23T09:37:54.701Z,19.90
2019-05-23T09:42:06.644Z,20.20
2019-05-23T09:46:19.704Z,20.10
2019-05-23T09:50:32.082Z,20.20
2019-05-23T09:54:43.631Z,20.10
2019-05-23T09:58:55.543Z,20.40
2019-05-23T10:03:07.487Z,20.40
2019-05-23T10:07:19.844Z,20.60
2019-05-23T10:11:41.431Z,20.50
2019-05-23T10:16:12.023Z,20.70
2019-05-23T10:20:26.535Z,20.70
2019-05-23T10:24:38.537Z,20.70
2019-05-23T10:28:50.290Z,20.90
2019-05-23T10:33:10.450Z,20.90
2019-05-23T10:37:18.243Z,21.10
2019-05-23T10:41:30.462Z,21.30
2019-05-23T10:45:42.897Z,21.50
2019-05-23T10:49:55.265Z,21.70
2019-05-23T10:54:07.321Z,21.90
2019-05-23T10:58:18.998Z,21.90
2019-05-23T11:02:31.020Z,21.50
2019-05-23T11:06:43.238Z,21.50
2019-05-23T11:10:54.944Z,21.40
2019-05-23T11:15:07.353Z,21.40
2019-05-23T11:19:19.224Z,21.40
2019-05-23T11:23:38.565Z,21.60
2019-05-23T11:27:50.698Z,21.40
2019-05-23T11:32:02.949Z,21.20
2019-05-23T11:36:31.846Z,21.30
2019-05-23T11:40:28.533Z,21.50
2019-05-23T11:44:40.511Z,21.60
2019-05-23T11:48:52.656Z,21.60
2019-05-23T11:53:04.525Z,21.70
2019-05-23T11:57:16.673Z,21.80
2019-05-23T12:01:50.103Z,21.90
2019-05-23T12:06:05.581Z,21.90
2019-05-23T12:10:16.058Z,22.00
2019-05-23T12:14:27.962Z,22.10
2019-05-23T12:18:41.161Z,22.10
2019-05-23T12:22:53.047Z,21.80
2019-05-23T12:27:05.467Z,21.60
2019-05-23T12:31:17.587Z,21.50
2019-05-23T12:35:29.668Z,21.40
2019-05-23T12:39:41.634Z,21.40
2019-05-23T12:43:53.494Z,21.60
2019-05-23T12:48:09.537Z,21.40
2019-05-23T12:52:22.285Z,21.10
2019-05-23T12:56:36.730Z,21.10
2019-05-23T13:00:51.265Z,21.10
2019-05-23T13:05:03.398Z,21.30
2019-05-23T13:09:15.245Z,21.00
2019-05-23T13:13:27.755Z,21.20
2019-05-23T13:17:40.341Z,21.60
2019-05-23T13:21:52.115Z,21.50
2019-05-23T13:26:03.972Z,21.40
2019-05-23T13:30:15.822Z,21.90
2019-05-23T13:34:27.721Z,21.90
2019-05-23T13:38:39.684Z,22.10
2019-05-23T13:42:51.837Z,22.00
2019-05-23T13:47:04.431Z,22.10
2019-05-23T13:51:16.372Z,21.70
2019-05-23T13:55:28.624Z,22.10
2019-05-23T13:59:40.548Z,22.50
2019-05-23T14:03:52.657Z,22.40
2019-05-23T14:08:12.363Z,22.30
2019-05-23T14:12:21.216Z,22.60
2019-05-23T14:16:36.363Z,22.60
2019-05-23T14:20:48.414Z,22.30
2019-05-23T14:25:00.417Z,21.80
2019-05-23T14:29:12.359Z,21.50
2019-05-23T14:33:41.627Z,21.40
2019-05-23T14:37:55.840Z,21.40
2019-05-23T14:42:20.818Z,21.60
2019-05-23T14:46:36.689Z,21.40
2019-05-23T14:50:58.789Z,21.20
2019-05-23T14:55:12.304Z,21.40
2019-05-23T14:59:24.334Z,21.50
2019-05-23T15:03:36.728Z,21.70
2019-05-23T15:07:48.547Z,21.40
2019-05-23T15:12:00.441Z,21.20
2019-05-23T15:16:12.860Z,21.00
2019-05-23T15:20:24.919Z,20.80
2019-05-23T15:24:37.099Z,21.00
2019-05-23T15:28:49.043Z,21.40
2019-05-23T15:33:00.813Z,21.70
2019-05-23T15:37:12.788Z,21.60
2019-05-23T15:41:24.395Z,21.80
2019-05-23T15:45:36.063Z,22.00
2019-05-23T15:49:49.547Z,22.00
2019-05-23T15:54:19.987Z,21.90
2019-05-23T15:58:43.392Z,21.50
2019-05-23T16:03:01.597Z,21.40
2019-05-23T16:07:13.610Z,21.40
2019-05-23T16:11:25.496Z,21.40
2019-05-23T16:15:37.268Z,21.50
2019-05-23T16:19:49.311Z,21.70
2019-05-23T16:24:01.394Z,21.60
2019-05-23T16:28:13.369Z,21.30
2019-05-23T16:32:25.304Z,20.70
2019-05-23T16:36:37.223Z,20.40
2019-05-23T16:40:50.241Z,20.30
2019-05-23T16:45:02.224Z,20.30
2019-05-23T16:49:14.166Z,20.10
2019-05-23T16:53:27.233Z,20.20
2019-05-23T16:57:52.191Z,20.00
2019-05-23T17:02:21.663Z,19.90
2019-05-23T17:06:40.812Z,19.90
2019-05-23T17:11:13.960Z,20.10
2019-05-23T17:15:43.554Z,20.10
2019-05-23T17:20:19.027Z,20.00
2019-05-23T17:24:54.985Z,20.00
2019-05-23T17:29:14.454Z,19.90
2019-05-23T17:33:26.601Z,19.90
2019-05-23T17:37:38.520Z,20.20
2019-05-23T17:41:50.721Z,20.70
2019-05-23T17:46:02.526Z,20.80
2019-05-23T17:50:14.496Z,20.60
2019-05-23T17:54:27.320Z,20.70
2019-05-23T17:58:40.289Z,20.70
2019-05-23T18:02:52.100Z,20.90
2019-05-23T18:07:04.084Z,20.90
2019-05-23T18:11:15.907Z,20.40
2019-05-23T18:15:29.885Z,20.10
2019-05-23T18:19:41.775Z,19.90
2019-05-23T18:23:54.167Z,19.60
2019-05-23T18:28:06.913Z,19.60
2019-05-23T18:32:22.351Z,19.50
2019-05-23T18:36:35.185Z,19.40
2019-05-23T18:41:01.619Z,19.40
2019-05-23T18:45:01.379Z,19.40
2019-05-23T18:49:13.841Z,19.30
2019-05-23T18:53:25.779Z,19.20
2019-05-23T18:57:38.349Z,19.10
2019-05-23T19:01:50.273Z,19.20
2019-05-23T19:06:02.138Z,19.10
2019-05-23T19:10:15.216Z,19.00
2019-05-23T19:14:27.119Z,19.00
2019-05-23T19:18:39.397Z,19.00
2019-05-23T19:22:51.132Z,18.90
2019-05-23T19:27:03.746Z,18.70
2019-05-23T19:31:16.274Z,18.50
2019-05-23T19:35:28.855Z,18.40
2019-05-23T19:39:41.696Z,18.20
2019-05-23T19:43:53.540Z,18.10
2019-05-23T19:48:05.336Z,17.70
2019-05-23T19:52:17.426Z,17.50
2019-05-23T19:56:29.712Z,17.40
2019-05-23T20:00:43.146Z,17.20
2019-05-23T20:05:23.000Z,16.80
2019-05-23T20:09:34.833Z,16.40
2019-05-23T20:13:46.936Z,16.20
2019-05-23T20:17:58.756Z,16.20
2019-05-23T20:22:10.658Z,16.10
2019-05-23T20:26:22.365Z,16.10
2019-05-23T20:31:02.667Z,16.10
2019-05-23T20:35:14.899Z,16.00
2019-05-23T20:39:26.757Z,15.80
2019-05-23T20:43:38.915Z,15.80
2019-05-23T20:47:50.798Z,15.80
2019-05-23T20:52:03.380Z,15.80
2019-05-23T20:56:15.149Z,15.90
2019-05-23T21:00:42.799Z,15.80
2019-05-23T21:04:54.493Z,15.80
2019-05-23T21:09:07.873Z,15.90
2019-05-23T21:13:20.113Z,15.80
2019-05-23T21:17:32.408Z,15.80
2019-05-23T21:21:44.191Z,15.90
2019-05-23T21:26:05.413Z,15.60
2019-05-23T21:30:17.237Z,15.40
2019-05-23T21:34:29.104Z,15.20
2019-05-23T21:38:40.940Z,15.30
2019-05-23T21:42:52.750Z,15.10
2019-05-23T21:47:04.585Z,14.90
2019-05-23T21:51:16.586Z,14.70
2019-05-23T21:55:37.065Z,14.50
2019-05-23T21:59:48.850Z,14.40
2019-05-23T22:04:19.545Z,14.20
2019-05-23T22:08:33.294Z,14.10
2019-05-23T22:12:45.659Z,14.00
2019-05-23T22:16:57.561Z,14.00
2019-05-23T22:21:09.816Z,13.90
2019-05-23T22:25:33.053Z,13.90
2019-05-23T22:29:44.679Z,13.80
2019-05-23T22:34:02.669Z,13.80
2019-05-23T22:38:15.644Z,13.70
2019-05-23T22:42:28.567Z,13.60
2019-05-23T22:46:40.574Z,13.50
2019-05-23T22:50:52.341Z,13.40
2019-05-23T22:55:04.411Z,13.40
2019-05-23T22:59:16.403Z,13.40
2019-05-23T23:03:29.670Z,13.20
2019-05-23T23:07:42.177Z,13.20
2019-05-23T23:11:54.208Z,13.30
2019-05-23T23:16:06.155Z,13.10
2019-05-23T23:20:18.369Z,13.00
2019-05-23T23:24:30.235Z,12.90
2019-05-23T23:28:42.234Z,12.90
2019-05-23T23:32:54.295Z,12.80
2019-05-23T23:37:06.717Z,12.80
2019-05-23T23:41:18.617Z,12.70
2019-05-23T23:45:47.620Z,12.50
2019-05-23T23:50:17.954Z,12.50
2019-05-23T23:54:47.469Z,12.30
2019-05-23T23:58:57.946Z,12.30
